createdAt,value
2022-12-05T00:00:41.738Z,100877.63
2022-12-05T00:03:10.865Z,100876.75
2022-12-05T00:05:41.728Z,100871.56
2022-12-05T00:08:10.505Z,100867.25
2022-12-05T00:10:40.163Z,100877.59
2022-12-05T00:13:09.772Z,100877.59
2022-12-05T00:15:41.217Z,100882.75
2022-12-05T00:18:10.125Z,100886.22
2022-12-05T00:20:39.072Z,100879.31
2022-12-05T00:23:08.306Z,100886.22
2022-12-05T00:25:37.821Z,100882.75
2022-12-05T00:28:07.962Z,100885.34
2022-12-05T00:30:36.784Z,100877.59
2022-12-05T00:33:07.163Z,100876.72
2022-12-05T00:35:35.931Z,100875.88
2022-12-05T00:38:06.461Z,100877.59
2022-12-05T00:40:37.253Z,100869.81
2022-12-05T00:43:06.023Z,100865.53
2022-12-05T00:45:36.132Z,100867.25
2022-12-05T00:48:07.282Z,100864.66
2022-12-05T00:50:35.886Z,100859.47
2022-12-05T00:53:04.731Z,100860.34
2022-12-05T00:55:33.647Z,100863.81
2022-12-05T00:58:02.532Z,100862.91
2022-12-05T01:00:31.186Z,100869.81
2022-12-05T01:02:59.953Z,100864.66
2022-12-05T01:05:30.521Z,100864.66
2022-12-05T01:07:59.465Z,100860.34
2022-12-05T01:10:28.360Z,100867.22
2022-12-05T01:12:56.942Z,100865.53
2022-12-05T01:15:25.859Z,100858.63
2022-12-05T01:17:54.835Z,100855.19
2022-12-05T01:20:23.302Z,100851.72
2022-12-05T01:22:53.413Z,100844.81
2022-12-05T01:25:21.934Z,100856.00
2022-12-05T01:27:50.768Z,100863.75
2022-12-05T01:30:20.467Z,100865.50
2022-12-05T01:32:48.962Z,100863.75
2022-12-05T01:35:17.648Z,100858.59
2022-12-05T01:37:46.517Z,100856.88
2022-12-05T01:40:16.373Z,100849.94
2022-12-05T01:42:45.042Z,100853.41
2022-12-05T01:45:17.887Z,100856.84
2022-12-05T01:47:46.830Z,100846.53
2022-12-05T01:50:15.602Z,100855.19
2022-12-05T01:52:44.615Z,100850.84
2022-12-05T01:55:18.953Z,100843.97
2022-12-05T01:57:49.848Z,100846.53
2022-12-05T02:00:20.366Z,100841.34
2022-12-05T02:02:52.990Z,100845.69
2022-12-05T02:05:24.942Z,100846.53
2022-12-05T02:07:53.593Z,100835.34
2022-12-05T02:10:24.258Z,100838.75
2022-12-05T02:12:53.781Z,100839.63
2022-12-05T02:15:33.290Z,100830.13
2022-12-05T02:18:13.098Z,100824.13
2022-12-05T02:20:53.115Z,100820.69
2022-12-05T02:23:58.419Z,100813.78
2022-12-05T02:26:56.801Z,100801.72
2022-12-05T02:29:50.740Z,100801.72
2022-12-05T02:32:33.356Z,100789.69
2022-12-05T02:35:09.342Z,100779.31
2022-12-05T02:37:44.481Z,100787.06
2022-12-05T02:40:21.334Z,100786.22
2022-12-05T02:42:55.204Z,100781.03
2022-12-05T02:45:28.245Z,100788.78
2022-12-05T02:48:00.292Z,100781.88
2022-12-05T02:50:33.271Z,100786.22
2022-12-05T02:53:08.644Z,100781.03
2022-12-05T02:55:38.064Z,100777.56
2022-12-05T02:58:13.538Z,100780.16
2022-12-05T03:00:46.539Z,100775.88
2022-12-05T03:03:20.644Z,100792.22
2022-12-05T03:05:56.057Z,100782.75
2022-12-05T03:08:30.353Z,100793.97
2022-12-05T03:11:03.539Z,100783.63
2022-12-05T03:13:39.399Z,100782.75
2022-12-05T03:16:12.450Z,100773.31
2022-12-05T03:18:48.376Z,100781.03
2022-12-05T03:21:26.925Z,100777.59
2022-12-05T03:23:59.901Z,100786.22
2022-12-05T03:26:39.098Z,100780.19
2022-12-05T03:29:21.458Z,100784.50
2022-12-05T03:32:00.931Z,100776.75
2022-12-05T03:34:44.767Z,100780.22
2022-12-05T03:37:20.157Z,100780.22
2022-12-05T03:39:57.227Z,100768.16
2022-12-05T03:42:33.227Z,100779.38
2022-12-05T03:45:08.251Z,100770.75
2022-12-05T03:47:46.124Z,100773.31
2022-12-05T03:50:23.710Z,100765.56
2022-12-05T03:53:19.040Z,100769.00
2022-12-05T03:55:50.615Z,100777.66
2022-12-05T03:58:24.363Z,100772.47
2022-12-05T04:00:55.694Z,100763.84
2022-12-05T04:03:28.608Z,100781.94
2022-12-05T04:06:03.198Z,100786.25
2022-12-05T04:08:38.085Z,100776.75
2022-12-05T04:11:12.364Z,100771.59
2022-12-05T04:13:45.153Z,100773.31
2022-12-05T04:16:35.767Z,100761.25
2022-12-05T04:19:10.595Z,100771.59
2022-12-05T04:21:44.616Z,100766.44
2022-12-05T04:24:35.365Z,100762.16
2022-12-05T04:27:18.446Z,100763.88
2022-12-05T04:30:03.297Z,100769.03
2022-12-05T04:32:38.784Z,100763.88
2022-12-05T04:35:15.299Z,100761.28
2022-12-05T04:37:50.825Z,100758.69
2022-12-05T04:40:26.379Z,100759.56
2022-12-05T04:42:58.141Z,100756.97
2022-12-05T04:45:27.876Z,100756.13
2022-12-05T04:48:02.474Z,100757.84
2022-12-05T04:50:34.915Z,100749.22
2022-12-05T04:53:05.431Z,100746.66
2022-12-05T04:55:38.724Z,100749.22
2022-12-05T04:58:10.857Z,100751.78
2022-12-05T05:00:48.965Z,100744.91
2022-12-05T05:03:23.169Z,100755.25
2022-12-05T05:05:55.288Z,100745.78
2022-12-05T05:08:26.357Z,100754.38
2022-12-05T05:11:07.871Z,100749.22
2022-12-05T05:13:36.475Z,100756.09
2022-12-05T05:16:06.690Z,100749.22
2022-12-05T05:18:35.661Z,100746.63
2022-12-05T05:21:04.550Z,100748.34
2022-12-05T05:23:37.693Z,100762.16
2022-12-05T05:26:06.552Z,100756.97
2022-12-05T05:28:35.279Z,100765.59
2022-12-05T05:31:05.083Z,100750.09
2022-12-05T05:33:34.136Z,100746.66
2022-12-05T05:36:05.297Z,100749.25
2022-12-05T05:38:39.620Z,100750.94
2022-12-05T05:41:14.141Z,100751.81
2022-12-05T05:43:43.272Z,100758.72
2022-12-05T05:46:12.712Z,100760.44
2022-12-05T05:48:41.438Z,100762.16
2022-12-05T05:51:13.262Z,100753.56
2022-12-05T05:53:43.781Z,100765.63
2022-12-05T05:56:18.641Z,100770.78
2022-12-05T05:58:50.412Z,100767.34
2022-12-05T06:01:21.489Z,100771.63
2022-12-05T06:03:52.892Z,100770.78
2022-12-05T06:06:25.303Z,100772.50
2022-12-05T06:08:56.048Z,100767.34
2022-12-05T06:11:28.449Z,100771.63
2022-12-05T06:13:58.441Z,100763.03
2022-12-05T06:16:27.250Z,100769.91
2022-12-05T06:18:56.107Z,100765.63
2022-12-05T06:21:29.339Z,100775.09
2022-12-05T06:23:59.772Z,100763.88
2022-12-05T06:26:28.255Z,100772.50
2022-12-05T06:28:57.206Z,100770.81
2022-12-05T06:31:31.468Z,100765.63
2022-12-05T06:34:03.951Z,100778.53
2022-12-05T06:36:33.588Z,100767.34
2022-12-05T06:39:03.783Z,100772.50
2022-12-05T06:41:34.076Z,100772.50
2022-12-05T06:44:08.507Z,100775.97
2022-12-05T06:46:51.796Z,100772.50
2022-12-05T06:49:25.064Z,100775.97
2022-12-05T06:51:59.254Z,100782.00
2022-12-05T06:54:30.722Z,100781.13
2022-12-05T06:57:02.104Z,100769.94
2022-12-05T06:59:33.685Z,100779.41
2022-12-05T07:02:02.047Z,100770.78
2022-12-05T07:04:31.181Z,100765.63
2022-12-05T07:07:02.236Z,100768.22
2022-12-05T07:09:46.936Z,100758.72
2022-12-05T07:12:18.348Z,100758.75
2022-12-05T07:14:49.289Z,100763.06
2022-12-05T07:17:21.336Z,100757.03
2022-12-05T07:19:50.904Z,100769.94
2022-12-05T07:22:21.262Z,100752.72
2022-12-05T07:24:52.725Z,100750.13
2022-12-05T07:27:28.015Z,100744.97
2022-12-05T07:30:04.335Z,100749.28
2022-12-05T07:32:34.734Z,100750.13
2022-12-05T07:35:08.649Z,100763.06
2022-12-05T07:37:39.775Z,100751.84
2022-12-05T07:40:11.559Z,100746.69
2022-12-05T07:42:39.965Z,100753.59
2022-12-05T07:45:10.098Z,100751.88
2022-12-05T07:47:44.056Z,100764.81
2022-12-05T07:50:18.679Z,100756.19
2022-12-05T07:52:47.208Z,100756.16
2022-12-05T07:55:18.536Z,100755.31
2022-12-05T07:57:52.341Z,100753.59
2022-12-05T08:00:22.950Z,100749.31
2022-12-05T08:02:51.771Z,100735.50
2022-12-05T08:05:20.913Z,100734.63
2022-12-05T08:07:50.016Z,100739.78
2022-12-05T08:10:23.311Z,100741.53
2022-12-05T08:12:52.195Z,100740.66
2022-12-05T08:15:23.686Z,100741.53
2022-12-05T08:17:53.282Z,100739.81
2022-12-05T08:20:26.674Z,100745.84
2022-12-05T08:22:58.647Z,100746.72
2022-12-05T08:25:29.833Z,100751.88
2022-12-05T08:27:59.520Z,100751.03
2022-12-05T08:30:29.329Z,100751.88
2022-12-05T08:33:00.676Z,100743.25
2022-12-05T08:35:29.555Z,100751.00
2022-12-05T08:37:58.413Z,100744.13
2022-12-05T08:40:27.400Z,100751.88
2022-12-05T08:42:57.582Z,100749.28
2022-12-05T08:45:26.641Z,100742.41
2022-12-05T08:47:55.808Z,100748.44
2022-12-05T08:50:24.779Z,100749.28
2022-12-05T08:52:56.494Z,100743.25
2022-12-05T08:55:25.607Z,100746.72
2022-12-05T08:57:54.311Z,100743.25
2022-12-05T09:00:24.766Z,100739.78
2022-12-05T09:02:53.644Z,100730.28
2022-12-05T09:05:28.763Z,100735.47
2022-12-05T09:07:59.500Z,100721.69
2022-12-05T09:10:32.108Z,100729.44
2022-12-05T09:13:01.038Z,100729.44
2022-12-05T09:15:31.274Z,100723.41
2022-12-05T09:17:59.985Z,100724.28
2022-12-05T09:20:30.924Z,100717.38
2022-12-05T09:22:59.853Z,100720.84
2022-12-05T09:25:28.914Z,100719.09
2022-12-05T09:28:00.954Z,100722.53
2022-12-05T09:30:34.217Z,100713.91
2022-12-05T09:33:02.771Z,100719.06
2022-12-05T09:35:31.721Z,100713.03
2022-12-05T09:38:02.121Z,100704.41
2022-12-05T09:40:34.817Z,100705.28
2022-12-05T09:43:08.739Z,100698.38
2022-12-05T09:45:41.182Z,100702.69
2022-12-05T09:48:16.979Z,100697.50
2022-12-05T09:50:51.618Z,100694.06
2022-12-05T09:53:29.143Z,100687.13
2022-12-05T09:56:03.857Z,100693.19
2022-12-05T09:58:42.983Z,100687.13
2022-12-05T10:01:28.026Z,100681.06
2022-12-05T10:04:21.172Z,100687.09
2022-12-05T10:07:03.789Z,100687.09
2022-12-05T10:09:55.336Z,100680.22
2022-12-05T10:12:43.440Z,100684.53
2022-12-05T10:15:19.506Z,100682.81
2022-12-05T10:17:58.043Z,100679.38
2022-12-05T10:20:31.481Z,100681.06
2022-12-05T10:23:23.154Z,100670.72
2022-12-05T10:26:03.941Z,100675.03
2022-12-05T10:28:37.800Z,100671.56
2022-12-05T10:31:12.198Z,100665.53
2022-12-05T10:33:47.496Z,100665.50
2022-12-05T10:36:16.855Z,100659.47
2022-12-05T10:38:46.715Z,100649.97
2022-12-05T10:41:18.798Z,100649.94
2022-12-05T10:43:49.468Z,100635.25
2022-12-05T10:46:24.716Z,100643.88
2022-12-05T10:48:54.856Z,100632.66
2022-12-05T10:51:34.017Z,100626.59
2022-12-05T10:54:15.043Z,100626.59
2022-12-05T10:56:45.699Z,100636.03
2022-12-05T10:59:20.620Z,100625.66
2022-12-05T11:01:52.775Z,100614.41
2022-12-05T11:04:32.468Z,100616.97
2022-12-05T11:07:03.458Z,100609.25
2022-12-05T11:09:37.468Z,100615.25
2022-12-05T11:12:18.011Z,100608.38
2022-12-05T11:15:01.287Z,100614.38
2022-12-05T11:17:34.015Z,100608.34
2022-12-05T11:20:27.783Z,100607.47
2022-12-05T11:23:23.458Z,100604.91
2022-12-05T11:25:52.773Z,100607.50
2022-12-05T11:28:34.237Z,100608.34
2022-12-05T11:31:24.326Z,100604.84
2022-12-05T11:34:03.577Z,100597.13
2022-12-05T11:36:41.444Z,100599.66
2022-12-05T11:39:16.755Z,100603.13
2022-12-05T11:42:25.081Z,100602.25
2022-12-05T11:45:18.705Z,100590.19
2022-12-05T11:48:13.497Z,100597.06
2022-12-05T11:50:52.728Z,100590.19
2022-12-05T11:53:45.646Z,100591.94
2022-12-05T11:56:25.855Z,100590.22
2022-12-05T11:59:12.773Z,100591.06
2022-12-05T12:01:54.226Z,100585.00
2022-12-05T12:04:40.167Z,100578.91
2022-12-05T12:07:23.293Z,100582.34
2022-12-05T12:10:10.181Z,100579.75
2022-12-05T12:12:49.598Z,100584.00
2022-12-05T12:15:37.348Z,100581.41
2022-12-05T12:18:17.630Z,100583.09
2022-12-05T12:21:03.633Z,100579.63
2022-12-05T12:23:44.550Z,100574.41
2022-12-05T12:26:19.351Z,100570.06
2022-12-05T12:29:00.280Z,100570.94
2022-12-05T12:31:59.732Z,100571.78
2022-12-05T12:34:56.640Z,100559.72
2022-12-05T12:37:35.302Z,100556.28
2022-12-05T12:40:15.438Z,100558.06
2022-12-05T12:43:03.445Z,100560.66
2022-12-05T12:45:51.533Z,100554.59
2022-12-05T12:48:38.101Z,100546.81
2022-12-05T12:51:10.335Z,100539.94
2022-12-05T12:53:58.967Z,100541.66
2022-12-05T12:56:39.590Z,100543.41
2022-12-05T12:59:31.177Z,100536.44
2022-12-05T13:02:03.359Z,100532.13
2022-12-05T13:04:40.647Z,100526.94
2022-12-05T13:07:15.119Z,100542.47
2022-12-05T13:09:51.793Z,100533.84
2022-12-05T13:12:27.675Z,100542.47
2022-12-05T13:15:02.234Z,100540.75
2022-12-05T13:17:37.682Z,100540.75
2022-12-05T13:20:07.668Z,100540.75
2022-12-05T13:22:40.741Z,100543.34
2022-12-05T13:25:16.535Z,100543.34
2022-12-05T13:27:56.356Z,100539.03
2022-12-05T13:30:28.538Z,100543.34
2022-12-05T13:32:59.856Z,100542.50
2022-12-05T13:35:50.401Z,100533.88
2022-12-05T13:38:41.397Z,100539.91
2022-12-05T13:41:27.887Z,100544.22
2022-12-05T13:44:06.334Z,100533.84
2022-12-05T13:46:40.755Z,100545.09
2022-12-05T13:49:18.261Z,100542.50
2022-12-05T13:51:48.352Z,100539.03
2022-12-05T13:54:26.971Z,100527.78
2022-12-05T13:56:58.756Z,100530.38
2022-12-05T14:00:05.476Z,100532.06
2022-12-05T14:02:53.319Z,100524.34
2022-12-05T14:05:55.721Z,100532.13
2022-12-05T14:08:56.683Z,100527.84
2022-12-05T14:11:29.863Z,100533.91
2022-12-05T14:14:04.271Z,100536.50
2022-12-05T14:16:45.989Z,100521.84
2022-12-05T14:19:53.902Z,100523.56
2022-12-05T14:22:49.906Z,100525.28
2022-12-05T14:25:59.102Z,100521.84
2022-12-05T14:28:48.692Z,100519.25
2022-12-05T14:31:34.436Z,100520.97
2022-12-05T14:34:15.498Z,100519.25
2022-12-05T14:36:59.095Z,100525.31
2022-12-05T14:39:49.202Z,100519.25
2022-12-05T14:42:26.276Z,100513.19
2022-12-05T14:44:58.625Z,100498.53
2022-12-05T14:47:34.590Z,100496.81
2022-12-05T14:50:34.885Z,100502.00
2022-12-05T14:53:36.005Z,100512.31
2022-12-05T14:56:21.418Z,100502.81
2022-12-05T14:58:58.132Z,100508.03
2022-12-05T15:01:31.507Z,100506.28
2022-12-05T15:04:20.925Z,100498.53
2022-12-05T15:06:54.085Z,100495.94
2022-12-05T15:09:49.594Z,100492.47
2022-12-05T15:12:22.518Z,100491.59
2022-12-05T15:15:02.661Z,100482.09
2022-12-05T15:17:40.828Z,100495.06
2022-12-05T15:20:17.578Z,100491.59
2022-12-05T15:22:46.368Z,100492.47
2022-12-05T15:25:26.147Z,100488.97
2022-12-05T15:27:57.338Z,100492.44
2022-12-05T15:30:26.471Z,100491.56
2022-12-05T15:32:59.422Z,100487.25
2022-12-05T15:35:33.270Z,100488.97
2022-12-05T15:38:09.509Z,100483.78
2022-12-05T15:40:40.949Z,100483.78
2022-12-05T15:43:30.096Z,100478.59
2022-12-05T15:46:10.101Z,100480.31
2022-12-05T15:48:39.037Z,100476.00
2022-12-05T15:51:08.005Z,100476.00
2022-12-05T15:53:42.003Z,100471.66
2022-12-05T15:56:16.658Z,100469.94
2022-12-05T15:58:49.906Z,100466.47
2022-12-05T16:01:23.064Z,100473.38
2022-12-05T16:03:57.293Z,100472.53
2022-12-05T16:06:31.919Z,100468.16
2022-12-05T16:09:02.582Z,100474.22
2022-12-05T16:11:32.849Z,100463.88
2022-12-05T16:14:04.819Z,100457.81
2022-12-05T16:16:34.306Z,100465.59
2022-12-05T16:19:07.703Z,100456.97
2022-12-05T16:21:39.437Z,100456.97
2022-12-05T16:24:09.666Z,100449.19
2022-12-05T16:26:43.408Z,100448.34
2022-12-05T16:29:28.487Z,100453.53
2022-12-05T16:31:58.033Z,100450.97
2022-12-05T16:34:29.379Z,100458.75
2022-12-05T16:36:59.519Z,100448.38
2022-12-05T16:39:29.632Z,100442.34
2022-12-05T16:41:59.853Z,100441.50
2022-12-05T16:45:03.656Z,100444.94
2022-12-05T16:47:54.947Z,100440.59
2022-12-05T16:50:27.580Z,100443.22
2022-12-05T16:53:03.765Z,100451.81
2022-12-05T16:55:37.311Z,100442.34
2022-12-05T16:58:10.003Z,100439.75
2022-12-05T17:00:39.116Z,100438.91
2022-12-05T17:03:33.479Z,100435.41
2022-12-05T17:06:02.510Z,100441.44
2022-12-05T17:08:31.915Z,100447.50
2022-12-05T17:11:02.062Z,100449.22
2022-12-05T17:13:33.931Z,100435.44
2022-12-05T17:16:03.034Z,100437.16
2022-12-05T17:18:32.302Z,100428.50
2022-12-05T17:21:03.322Z,100432.84
2022-12-05T17:23:31.927Z,100423.38
2022-12-05T17:26:01.315Z,100442.34
2022-12-05T17:28:29.862Z,100444.13
2022-12-05T17:31:00.115Z,100445.00
2022-12-05T17:33:28.691Z,100439.81
2022-12-05T17:35:57.267Z,100446.69
2022-12-05T17:38:25.831Z,100438.03
2022-12-05T17:40:54.925Z,100431.06
2022-12-05T17:43:25.513Z,100439.75
2022-12-05T17:45:55.357Z,100438.91
2022-12-05T17:48:26.694Z,100433.72
2022-12-05T17:50:58.084Z,100441.50
2022-12-05T17:53:27.382Z,100433.75
2022-12-05T17:55:56.530Z,100436.31
2022-12-05T17:58:25.960Z,100433.72
2022-12-05T18:00:54.783Z,100435.44
2022-12-05T18:03:24.952Z,100433.72
2022-12-05T18:05:53.611Z,100432.03
2022-12-05T18:08:22.448Z,100426.84
2022-12-05T18:10:51.776Z,100434.63
2022-12-05T18:13:20.677Z,100430.31
2022-12-05T18:15:50.290Z,100425.13
2022-12-05T18:18:20.343Z,100432.03
2022-12-05T18:20:50.499Z,100429.47
2022-12-05T18:23:19.409Z,100431.22
2022-12-05T18:25:58.548Z,100430.34
2022-12-05T18:28:27.281Z,100426.03
2022-12-05T18:31:08.466Z,100426.91
2022-12-05T18:33:40.403Z,100426.91
2022-12-05T18:36:12.509Z,100430.34
2022-12-05T18:38:42.752Z,100431.25
2022-12-05T18:41:12.384Z,100428.66
2022-12-05T18:43:41.471Z,100420.84
2022-12-05T18:46:10.651Z,100423.41
2022-12-05T18:48:42.620Z,100425.13
2022-12-05T18:51:17.804Z,100425.16
2022-12-05T18:53:52.642Z,100428.63
2022-12-05T18:56:24.567Z,100433.81
2022-12-05T18:58:55.826Z,100432.09
2022-12-05T19:01:25.701Z,100436.41
2022-12-05T19:03:56.264Z,100438.13
2022-12-05T19:06:29.920Z,100435.53
2022-12-05T19:09:00.784Z,100440.72
2022-12-05T19:11:31.986Z,100439.81
2022-12-05T19:14:02.447Z,100443.28
2022-12-05T19:16:33.702Z,100442.41
2022-12-05T19:19:03.507Z,100436.34
2022-12-05T19:21:34.983Z,100444.13
2022-12-05T19:24:04.555Z,100438.94
2022-12-05T19:26:33.376Z,100445.00
2022-12-05T19:29:01.930Z,100452.78
2022-12-05T19:31:31.066Z,100444.16
2022-12-05T19:34:01.698Z,100452.78
2022-12-05T19:36:35.613Z,100449.38
2022-12-05T19:39:10.561Z,100436.41
2022-12-05T19:41:39.799Z,100432.03
2022-12-05T19:44:08.928Z,100432.88
2022-12-05T19:46:37.825Z,100427.66
2022-12-05T19:49:08.646Z,100423.41
2022-12-05T19:51:39.169Z,100432.94
2022-12-05T19:54:10.106Z,100432.94
2022-12-05T19:56:39.417Z,100424.34
2022-12-05T19:59:08.502Z,100421.75
2022-12-05T20:01:39.516Z,100422.59
2022-12-05T20:04:10.264Z,100421.75
2022-12-05T20:06:43.048Z,100425.19
2022-12-05T20:09:13.740Z,100425.16
2022-12-05T20:11:45.478Z,100426.91
2022-12-05T20:14:17.432Z,100426.94
2022-12-05T20:16:46.606Z,100416.59
2022-12-05T20:19:16.118Z,100420.03
2022-12-05T20:21:50.602Z,100416.56
2022-12-05T20:24:19.534Z,100414.81
2022-12-05T20:26:48.268Z,100412.22
2022-12-05T20:29:17.247Z,100409.63
2022-12-05T20:31:46.106Z,100409.69
2022-12-05T20:34:16.048Z,100411.38
2022-12-05T20:36:46.205Z,100401.03
2022-12-05T20:39:17.586Z,100395.84
2022-12-05T20:41:46.528Z,100412.28
2022-12-05T20:44:18.247Z,100416.66
2022-12-05T20:46:47.031Z,100413.25
2022-12-05T20:49:15.853Z,100414.06
2022-12-05T20:51:48.788Z,100411.53
2022-12-05T20:54:18.579Z,100421.03
2022-12-05T20:56:47.549Z,100405.50
2022-12-05T20:59:16.920Z,100408.06
2022-12-05T21:01:47.484Z,100406.31
2022-12-05T21:04:16.883Z,100403.72
2022-12-05T21:06:47.331Z,100401.13
2022-12-05T21:09:26.947Z,100393.34
2022-12-05T21:11:56.360Z,100383.00
2022-12-05T21:14:25.863Z,100383.88
2022-12-05T21:16:55.108Z,100377.00
2022-12-05T21:19:24.207Z,100378.75
2022-12-05T21:21:55.241Z,100376.19
2022-12-05T21:24:24.690Z,100385.72
2022-12-05T21:26:53.416Z,100390.94
2022-12-05T21:29:22.144Z,100398.69
2022-12-05T21:31:54.086Z,100386.63
2022-12-05T21:34:24.030Z,100384.03
2022-12-05T21:36:54.247Z,100392.63
2022-12-05T21:39:23.324Z,100396.94
2022-12-05T21:41:52.058Z,100391.81
2022-12-05T21:44:21.485Z,100390.91
2022-12-05T21:46:51.140Z,100388.25
2022-12-05T21:49:20.065Z,100381.38
2022-12-05T21:51:48.787Z,100374.44
2022-12-05T21:54:19.225Z,100363.22
2022-12-05T21:56:48.182Z,100370.94
2022-12-05T21:59:16.861Z,100371.84
2022-12-05T22:01:46.607Z,100354.56
2022-12-05T22:04:15.499Z,100362.34
2022-12-05T22:06:44.542Z,100370.13
2022-12-05T22:09:13.820Z,100366.72
2022-12-05T22:11:44.696Z,100368.41
2022-12-05T22:14:13.269Z,100369.25
2022-12-05T22:16:42.049Z,100364.94
2022-12-05T22:19:11.137Z,100373.53
2022-12-05T22:21:40.495Z,100357.16
2022-12-05T22:24:09.516Z,100358.03
2022-12-05T22:26:38.835Z,100354.56
2022-12-05T22:29:09.408Z,100358.00
2022-12-05T22:31:37.889Z,100340.66
2022-12-05T22:34:06.637Z,100338.06
2022-12-05T22:36:35.305Z,100349.31
2022-12-05T22:39:04.640Z,100376.13
2022-12-05T22:41:33.325Z,100348.53
2022-12-05T22:44:01.902Z,100344.19
2022-12-05T22:46:33.625Z,100344.22
2022-12-05T22:49:04.879Z,100334.72
2022-12-05T22:51:33.431Z,100332.09
2022-12-05T22:54:02.168Z,100327.75
2022-12-05T22:56:30.928Z,100347.63
2022-12-05T22:59:01.854Z,100331.25
2022-12-05T23:01:33.416Z,100331.28
2022-12-05T23:04:03.747Z,100317.44
2022-12-05T23:06:34.532Z,100319.13
2022-12-05T23:09:03.993Z,100326.88
2022-12-05T23:11:33.063Z,100321.72
2022-12-05T23:14:02.865Z,100332.06
2022-12-05T23:16:34.836Z,100319.13
2022-12-05T23:19:05.837Z,100319.13
2022-12-05T23:21:36.463Z,100318.28
2022-12-05T23:24:07.423Z,100321.72
2022-12-05T23:26:38.312Z,100320.00
2022-12-05T23:29:07.406Z,100323.47
2022-12-05T23:31:37.503Z,100314.84
2022-12-05T23:34:06.357Z,100308.75
2022-12-05T23:36:36.098Z,100299.28
2022-12-05T23:39:06.570Z,100297.56
2022-12-05T23:41:35.743Z,100294.97
2022-12-05T23:44:04.994Z,100302.75
2022-12-05T23:46:34.309Z,100292.47
2022-12-05T23:49:04.959Z,100290.69
2022-12-05T23:51:34.216Z,100292.41
2022-12-05T23:54:04.259Z,100300.19
2022-12-05T23:56:34.968Z,100295.03
2022-12-05T23:59:04.675Z,100295.91
